sensor_id;sensor_type;location;lat;lon;timestamp;temperature;humidity
22161;DHT22;49035;48.812;11.762;2022-08-19T00:02:04;18.40;99.90
22161;DHT22;49035;48.812;11.762;2022-08-19T00:04:32;18.40;99.90
22161;DHT22;49035;48.812;11.762;2022-08-19T00:07:00;18.40;99.90
22161;DHT22;49035;48.812;11.762;2022-08-19T00:09:26;18.50;99.90
22161;DHT22;49035;48.812;11.762;2022-08-19T00:11:52;18.50;99.90
22161;DHT22;49035;48.812;11.762;2022-08-19T00:14:19;18.60;99.90
22161;DHT22;49035;48.812;11.762;2022-08-19T00:16:46;18.60;99.90
22161;DHT22;49035;48.812;11.762;2022-08-19T00:19:14;18.60;99.90
22161;DHT22;49035;48.812;11.762;2022-08-19T00:21:40;18.70;99.90
22161;DHT22;49035;48.812;11.762;2022-08-19T00:24:07;18.70;99.90
22161;DHT22;49035;48.812;11.762;2022-08-19T00:26:34;18.70;99.90
22161;DHT22;49035;48.812;11.762;2022-08-19T00:28:59;18.60;99.90
22161;DHT22;49035;48.812;11.762;2022-08-19T00:31:26;18.60;99.90
22161;DHT22;49035;48.812;11.762;2022-08-19T00:33:53;18.60;99.90
22161;DHT22;49035;48.812;11.762;2022-08-19T00:36:19;18.50;99.90
22161;DHT22;49035;48.812;11.762;2022-08-19T00:38:45;18.50;99.90
22161;DHT22;49035;48.812;11.762;2022-08-19T00:41:16;18.60;99.90
22161;DHT22;49035;48.812;11.762;2022-08-19T00:46:30;18.60;99.90
22161;DHT22;49035;48.812;11.762;2022-08-19T00:48:56;18.50;99.90
22161;DHT22;49035;48.812;11.762;2022-08-19T00:51:25;18.50;99.90
22161;DHT22;49035;48.812;11.762;2022-08-19T00:53:52;18.50;99.90
22161;DHT22;49035;48.812;11.762;2022-08-19T00:56:18;18.40;99.90
22161;DHT22;49035;48.812;11.762;2022-08-19T00:58:44;18.40;99.90
22161;DHT22;49035;48.812;11.762;2022-08-19T01:01:10;18.40;99.90
22161;DHT22;49035;48.812;11.762;2022-08-19T01:03:36;18.40;99.90
22161;DHT22;49035;48.812;11.762;2022-08-19T01:06:01;18.50;99.90
22161;DHT22;49035;48.812;11.762;2022-08-19T01:08:28;18.60;99.90
22161;DHT22;49035;48.812;11.762;2022-08-19T01:10:56;18.60;99.90
22161;DHT22;49035;48.812;11.762;2022-08-19T01:13:25;18.60;99.90
22161;DHT22;49035;48.812;11.762;2022-08-19T01:15:55;18.60;99.90
22161;DHT22;49035;48.812;11.762;2022-08-19T01:18:22;18.60;99.90
22161;DHT22;49035;48.812;11.762;2022-08-19T01:20:49;18.60;99.90
22161;DHT22;49035;48.812;11.762;2022-08-19T01:23:16;18.70;99.90
22161;DHT22;49035;48.812;11.762;2022-08-19T01:25:48;18.70;99.90
22161;DHT22;49035;48.812;11.762;2022-08-19T01:28:27;18.80;99.90
22161;DHT22;49035;48.812;11.762;2022-08-19T01:30:54;18.80;99.90
22161;DHT22;49035;48.812;11.762;2022-08-19T01:33:20;18.70;99.90
22161;DHT22;49035;48.812;11.762;2022-08-19T01:35:47;18.80;99.90
22161;DHT22;49035;48.812;11.762;2022-08-19T01:38:25;18.90;99.90
22161;DHT22;49035;48.812;11.762;2022-08-19T01:40:52;19.00;99.90
22161;DHT22;49035;48.812;11.762;2022-08-19T01:43:18;19.00;99.90
22161;DHT22;49035;48.812;11.762;2022-08-19T01:45:45;18.80;99.90
22161;DHT22;49035;48.812;11.762;2022-08-19T01:48:12;18.70;99.90
22161;DHT22;49035;48.812;11.762;2022-08-19T01:50:37;18.70;99.90
22161;DHT22;49035;48.812;11.762;2022-08-19T01:53:08;18.70;99.90
22161;DHT22;49035;48.812;11.762;2022-08-19T01:55:38;18.60;99.90
22161;DHT22;49035;48.812;11.762;2022-08-19T01:58:06;18.70;99.90
22161;DHT22;49035;48.812;11.762;2022-08-19T02:00:32;18.70;99.90
22161;DHT22;49035;48.812;11.762;2022-08-19T02:02:58;18.70;99.90
22161;DHT22;49035;48.812;11.762;2022-08-19T02:05:24;18.70;99.90
22161;DHT22;49035;48.812;11.762;2022-08-19T02:07:50;18.70;99.90
22161;DHT22;49035;48.812;11.762;2022-08-19T02:10:20;18.70;99.90
22161;DHT22;49035;48.812;11.762;2022-08-19T02:12:47;18.70;99.90
22161;DHT22;49035;48.812;11.762;2022-08-19T02:15:15;18.70;99.90
22161;DHT22;49035;48.812;11.762;2022-08-19T02:17:44;18.70;99.90
22161;DHT22;49035;48.812;11.762;2022-08-19T02:20:14;18.80;99.90
22161;DHT22;49035;48.812;11.762;2022-08-19T02:22:41;18.70;99.90
22161;DHT22;49035;48.812;11.762;2022-08-19T02:25:11;18.70;99.90
22161;DHT22;49035;48.812;11.762;2022-08-19T02:27:38;18.70;99.90
22161;DHT22;49035;48.812;11.762;2022-08-19T02:36:33;18.70;99.90
22161;DHT22;49035;48.812;11.762;2022-08-19T02:39:33;18.60;99.90
22161;DHT22;49035;48.812;11.762;2022-08-19T02:42:27;18.60;99.90
22161;DHT22;49035;48.812;11.762;2022-08-19T02:45:01;18.60;99.90
22161;DHT22;49035;48.812;11.762;2022-08-19T02:47:27;18.60;99.90
22161;DHT22;49035;48.812;11.762;2022-08-19T02:49:53;18.60;99.90
22161;DHT22;49035;48.812;11.762;2022-08-19T02:52:18;18.60;99.90
22161;DHT22;49035;48.812;11.762;2022-08-19T02:54:44;18.60;99.90
22161;DHT22;49035;48.812;11.762;2022-08-19T02:57:10;18.60;99.90
22161;DHT22;49035;48.812;11.762;2022-08-19T02:59:35;18.60;99.90
22161;DHT22;49035;48.812;11.762;2022-08-19T03:02:01;18.60;99.90
22161;DHT22;49035;48.812;11.762;2022-08-19T03:04:27;18.60;99.90
22161;DHT22;49035;48.812;11.762;2022-08-19T03:06:52;18.60;99.90
22161;DHT22;49035;48.812;11.762;2022-08-19T03:09:22;18.60;99.90
22161;DHT22;49035;48.812;11.762;2022-08-19T03:11:48;18.70;99.90
22161;DHT22;49035;48.812;11.762;2022-08-19T03:14:13;18.70;99.90
22161;DHT22;49035;48.812;11.762;2022-08-19T03:16:48;18.70;99.90
22161;DHT22;49035;48.812;11.762;2022-08-19T03:19:22;18.70;99.90
22161;DHT22;49035;48.812;11.762;2022-08-19T03:21:48;18.70;99.90
22161;DHT22;49035;48.812;11.762;2022-08-19T03:24:14;18.70;99.90
22161;DHT22;49035;48.812;11.762;2022-08-19T03:30:14;18.70;99.90
22161;DHT22;49035;48.812;11.762;2022-08-19T03:32:59;18.70;99.90
22161;DHT22;49035;48.812;11.762;2022-08-19T03:36:37;18.70;99.90
22161;DHT22;49035;48.812;11.762;2022-08-19T03:39:16;18.60;99.90
22161;DHT22;49035;48.812;11.762;2022-08-19T03:42:22;18.50;99.90
22161;DHT22;49035;48.812;11.762;2022-08-19T03:44:52;18.60;99.90
22161;DHT22;49035;48.812;11.762;2022-08-19T03:47:18;18.70;99.90
22161;DHT22;49035;48.812;11.762;2022-08-19T03:49:44;18.60;99.90
22161;DHT22;49035;48.812;11.762;2022-08-19T03:52:10;18.60;99.90
22161;DHT22;49035;48.812;11.762;2022-08-19T03:54:36;18.50;99.90
22161;DHT22;49035;48.812;11.762;2022-08-19T03:57:06;18.50;99.90
22161;DHT22;49035;48.812;11.762;2022-08-19T03:59:34;18.50;99.90
22161;DHT22;49035;48.812;11.762;2022-08-19T04:05:41;18.50;99.90
22161;DHT22;49035;48.812;11.762;2022-08-19T04:12:03;18.50;99.90
22161;DHT22;49035;48.812;11.762;2022-08-19T04:18:01;18.50;99.90
22161;DHT22;49035;48.812;11.762;2022-08-19T04:24:42;18.50;99.90
22161;DHT22;49035;48.812;11.762;2022-08-19T04:27:35;18.40;99.90
22161;DHT22;49035;48.812;11.762;2022-08-19T04:31:01;18.50;99.90
22161;DHT22;49035;48.812;11.762;2022-08-19T04:33:26;18.50;99.90
22161;DHT22;49035;48.812;11.762;2022-08-19T04:35:54;18.50;99.90
22161;DHT22;49035;48.812;11.762;2022-08-19T04:38:21;18.60;99.90
22161;DHT22;49035;48.812;11.762;2022-08-19T04:40:50;18.60;99.90
22161;DHT22;49035;48.812;11.762;2022-08-19T04:43:36;18.60;99.90
22161;DHT22;49035;48.812;11.762;2022-08-19T04:46:10;18.70;99.90
22161;DHT22;49035;48.812;11.762;2022-08-19T04:48:37;18.70;99.90
22161;DHT22;49035;48.812;11.762;2022-08-19T04:51:07;18.80;99.90
22161;DHT22;49035;48.812;11.762;2022-08-19T04:53:35;18.80;99.90
22161;DHT22;49035;48.812;11.762;2022-08-19T04:56:09;18.90;99.90
22161;DHT22;49035;48.812;11.762;2022-08-19T04:58:37;18.90;99.90
22161;DHT22;49035;48.812;11.762;2022-08-19T05:01:03;18.90;99.90
22161;DHT22;49035;48.812;11.762;2022-08-19T05:03:29;18.90;99.90
22161;DHT22;49035;48.812;11.762;2022-08-19T05:06:05;18.90;99.90
22161;DHT22;49035;48.812;11.762;2022-08-19T05:08:33;19.00;99.90
22161;DHT22;49035;48.812;11.762;2022-08-19T05:11:00;19.00;99.90
22161;DHT22;49035;48.812;11.762;2022-08-19T05:13:26;18.90;99.90
22161;DHT22;49035;48.812;11.762;2022-08-19T05:15:57;18.90;99.90
22161;DHT22;49035;48.812;11.762;2022-08-19T05:18:23;18.90;99.90
22161;DHT22;49035;48.812;11.762;2022-08-19T05:21:10;18.90;99.90
22161;DHT22;49035;48.812;11.762;2022-08-19T05:23:55;18.90;99.90
22161;DHT22;49035;48.812;11.762;2022-08-19T05:26:21;18.90;99.90
22161;DHT22;49035;48.812;11.762;2022-08-19T05:28:47;19.00;99.90
22161;DHT22;49035;48.812;11.762;2022-08-19T05:31:13;19.00;99.90
22161;DHT22;49035;48.812;11.762;2022-08-19T05:33:39;19.00;99.90
22161;DHT22;49035;48.812;11.762;2022-08-19T05:36:05;19.00;99.90
22161;DHT22;49035;48.812;11.762;2022-08-19T05:38:33;19.00;99.90
22161;DHT22;49035;48.812;11.762;2022-08-19T05:40:59;19.00;99.90
22161;DHT22;49035;48.812;11.762;2022-08-19T05:43:24;19.00;99.90
22161;DHT22;49035;48.812;11.762;2022-08-19T05:45:50;18.90;99.90
22161;DHT22;49035;48.812;11.762;2022-08-19T05:48:16;18.90;99.90
22161;DHT22;49035;48.812;11.762;2022-08-19T05:50:46;18.90;99.90
22161;DHT22;49035;48.812;11.762;2022-08-19T05:53:12;18.90;99.90
22161;DHT22;49035;48.812;11.762;2022-08-19T05:55:37;18.80;99.90
22161;DHT22;49035;48.812;11.762;2022-08-19T05:58:04;18.90;99.90
22161;DHT22;49035;48.812;11.762;2022-08-19T06:00:33;18.90;99.90
22161;DHT22;49035;48.812;11.762;2022-08-19T06:02:59;18.80;99.90
22161;DHT22;49035;48.812;11.762;2022-08-19T06:05:29;18.80;99.90
22161;DHT22;49035;48.812;11.762;2022-08-19T06:07:54;18.90;99.90
22161;DHT22;49035;48.812;11.762;2022-08-19T06:10:20;18.90;99.90
22161;DHT22;49035;48.812;11.762;2022-08-19T06:12:47;19.10;99.90
22161;DHT22;49035;48.812;11.762;2022-08-19T06:15:13;19.20;99.90
22161;DHT22;49035;48.812;11.762;2022-08-19T06:17:39;19.30;99.90
22161;DHT22;49035;48.812;11.762;2022-08-19T06:20:07;19.40;99.90
22161;DHT22;49035;48.812;11.762;2022-08-19T06:22:42;19.50;99.90
22161;DHT22;49035;48.812;11.762;2022-08-19T06:25:08;19.40;99.90
22161;DHT22;49035;48.812;11.762;2022-08-19T06:27:37;19.50;99.90
22161;DHT22;49035;48.812;11.762;2022-08-19T06:30:04;19.50;99.90
22161;DHT22;49035;48.812;11.762;2022-08-19T06:32:30;19.50;99.90
22161;DHT22;49035;48.812;11.762;2022-08-19T06:34:56;19.50;99.90
22161;DHT22;49035;48.812;11.762;2022-08-19T06:37:22;19.50;99.90
22161;DHT22;49035;48.812;11.762;2022-08-19T06:39:48;19.50;99.90
22161;DHT22;49035;48.812;11.762;2022-08-19T06:42:14;19.50;99.90
22161;DHT22;49035;48.812;11.762;2022-08-19T06:44:43;19.40;99.90
22161;DHT22;49035;48.812;11.762;2022-08-19T06:47:12;19.40;99.90
22161;DHT22;49035;48.812;11.762;2022-08-19T06:49:37;19.40;99.90
22161;DHT22;49035;48.812;11.762;2022-08-19T06:52:04;19.40;99.90
22161;DHT22;49035;48.812;11.762;2022-08-19T06:54:30;19.40;99.90
22161;DHT22;49035;48.812;11.762;2022-08-19T06:56:57;19.40;99.90
22161;DHT22;49035;48.812;11.762;2022-08-19T06:59:24;19.50;99.90
22161;DHT22;49035;48.812;11.762;2022-08-19T07:01:55;19.50;99.90
22161;DHT22;49035;48.812;11.762;2022-08-19T07:04:27;19.40;99.90
22161;DHT22;49035;48.812;11.762;2022-08-19T07:06:58;19.40;99.90
22161;DHT22;49035;48.812;11.762;2022-08-19T07:09:24;19.30;99.90
22161;DHT22;49035;48.812;11.762;2022-08-19T07:11:52;19.30;99.90
22161;DHT22;49035;48.812;11.762;2022-08-19T07:14:22;19.30;99.90
22161;DHT22;49035;48.812;11.762;2022-08-19T07:16:51;19.30;99.90
22161;DHT22;49035;48.812;11.762;2022-08-19T07:19:19;19.30;99.90
22161;DHT22;49035;48.812;11.762;2022-08-19T07:21:48;19.40;99.90
22161;DHT22;49035;48.812;11.762;2022-08-19T07:24:14;19.60;99.90
22161;DHT22;49035;48.812;11.762;2022-08-19T07:26:42;19.60;99.90
22161;DHT22;49035;48.812;11.762;2022-08-19T07:29:10;19.70;99.90
22161;DHT22;49035;48.812;11.762;2022-08-19T07:31:35;19.90;99.90
22161;DHT22;49035;48.812;11.762;2022-08-19T07:34:04;19.90;99.90
22161;DHT22;49035;48.812;11.762;2022-08-19T07:36:33;19.90;99.90
22161;DHT22;49035;48.812;11.762;2022-08-19T07:39:03;20.00;99.90
22161;DHT22;49035;48.812;11.762;2022-08-19T07:41:30;20.00;99.90
22161;DHT22;49035;48.812;11.762;2022-08-19T07:43:59;20.00;99.90
22161;DHT22;49035;48.812;11.762;2022-08-19T07:46:33;20.00;99.90
22161;DHT22;49035;48.812;11.762;2022-08-19T07:49:00;20.00;99.90
22161;DHT22;49035;48.812;11.762;2022-08-19T07:51:27;20.10;99.90
22161;DHT22;49035;48.812;11.762;2022-08-19T07:53:53;20.30;99.90
22161;DHT22;49035;48.812;11.762;2022-08-19T07:56:20;20.70;99.90
22161;DHT22;49035;48.812;11.762;2022-08-19T07:58:48;20.90;99.90
22161;DHT22;49035;48.812;11.762;2022-08-19T08:01:20;21.20;99.90
22161;DHT22;49035;48.812;11.762;2022-08-19T08:03:48;21.60;99.90
22161;DHT22;49035;48.812;11.762;2022-08-19T08:06:32;21.90;99.90
22161;DHT22;49035;48.812;11.762;2022-08-19T08:09:22;22.00;99.90
22161;DHT22;49035;48.812;11.762;2022-08-19T08:11:51;22.10;99.90
22161;DHT22;49035;48.812;11.762;2022-08-19T08:14:21;22.20;99.90
22161;DHT22;49035;48.812;11.762;2022-08-19T08:16:48;22.40;99.90
22161;DHT22;49035;48.812;11.762;2022-08-19T08:19:17;22.60;99.90
22161;DHT22;49035;48.812;11.762;2022-08-19T08:21:43;22.60;99.90
22161;DHT22;49035;48.812;11.762;2022-08-19T08:24:10;22.50;99.90
22161;DHT22;49035;48.812;11.762;2022-08-19T08:26:35;22.20;99.90
22161;DHT22;49035;48.812;11.762;2022-08-19T08:29:01;21.90;99.90
22161;DHT22;49035;48.812;11.762;2022-08-19T08:31:27;21.50;99.90
22161;DHT22;49035;48.812;11.762;2022-08-19T08:33:54;21.10;99.90
22161;DHT22;49035;48.812;11.762;2022-08-19T08:36:20;21.00;99.90
22161;DHT22;49035;48.812;11.762;2022-08-19T08:38:46;21.00;99.90
22161;DHT22;49035;48.812;11.762;2022-08-19T08:41:33;21.10;99.90
22161;DHT22;49035;48.812;11.762;2022-08-19T08:44:01;21.20;99.90
22161;DHT22;49035;48.812;11.762;2022-08-19T08:46:42;21.30;99.90
22161;DHT22;49035;48.812;11.762;2022-08-19T08:52:08;21.70;99.90
22161;DHT22;49035;48.812;11.762;2022-08-19T08:54:44;21.80;99.90
22161;DHT22;49035;48.812;11.762;2022-08-19T08:57:15;22.30;99.90
22161;DHT22;49035;48.812;11.762;2022-08-19T08:59:46;22.50;99.90
22161;DHT22;49035;48.812;11.762;2022-08-19T09:02:16;22.50;99.90
22161;DHT22;49035;48.812;11.762;2022-08-19T09:04:42;22.70;99.90
22161;DHT22;49035;48.812;11.762;2022-08-19T09:09:54;23.50;99.90
22161;DHT22;49035;48.812;11.762;2022-08-19T09:12:46;24.10;99.90
22161;DHT22;49035;48.812;11.762;2022-08-19T09:15:17;24.50;99.90
22161;DHT22;49035;48.812;11.762;2022-08-19T09:17:43;24.80;99.90
22161;DHT22;49035;48.812;11.762;2022-08-19T09:22:39;25.50;99.90
22161;DHT22;49035;48.812;11.762;2022-08-19T09:25:08;25.80;99.90
22161;DHT22;49035;48.812;11.762;2022-08-19T09:27:36;25.90;99.90
22161;DHT22;49035;48.812;11.762;2022-08-19T09:30:04;26.00;99.90
22161;DHT22;49035;48.812;11.762;2022-08-19T09:32:30;25.50;99.90
22161;DHT22;49035;48.812;11.762;2022-08-19T09:34:56;25.10;99.90
22161;DHT22;49035;48.812;11.762;2022-08-19T09:37:23;24.60;99.90
22161;DHT22;49035;48.812;11.762;2022-08-19T09:39:49;24.10;99.90
22161;DHT22;49035;48.812;11.762;2022-08-19T09:42:15;23.70;99.90
22161;DHT22;49035;48.812;11.762;2022-08-19T09:44:42;23.60;99.90
22161;DHT22;49035;48.812;11.762;2022-08-19T09:47:09;23.40;99.90
22161;DHT22;49035;48.812;11.762;2022-08-19T09:49:36;23.40;99.90
22161;DHT22;49035;48.812;11.762;2022-08-19T09:52:03;23.50;99.90
22161;DHT22;49035;48.812;11.762;2022-08-19T09:54:29;23.80;99.90
22161;DHT22;49035;48.812;11.762;2022-08-19T09:56:55;24.00;99.90
22161;DHT22;49035;48.812;11.762;2022-08-19T09:59:23;24.00;99.90
22161;DHT22;49035;48.812;11.762;2022-08-19T10:01:49;23.70;99.90
22161;DHT22;49035;48.812;11.762;2022-08-19T10:04:15;23.50;99.90
22161;DHT22;49035;48.812;11.762;2022-08-19T10:06:41;23.20;99.90
22161;DHT22;49035;48.812;11.762;2022-08-19T10:09:08;23.00;99.90
22161;DHT22;49035;48.812;11.762;2022-08-19T10:11:35;22.70;99.90
22161;DHT22;49035;48.812;11.762;2022-08-19T10:14:03;22.50;99.90
22161;DHT22;49035;48.812;11.762;2022-08-19T10:16:31;22.30;99.90
22161;DHT22;49035;48.812;11.762;2022-08-19T10:18:58;22.20;99.90
22161;DHT22;49035;48.812;11.762;2022-08-19T10:21:29;22.10;99.90
22161;DHT22;49035;48.812;11.762;2022-08-19T10:23:57;21.90;99.90
22161;DHT22;49035;48.812;11.762;2022-08-19T10:26:29;21.80;99.90
22161;DHT22;49035;48.812;11.762;2022-08-19T10:28:56;21.90;99.90
22161;DHT22;49035;48.812;11.762;2022-08-19T10:31:24;22.20;99.90
22161;DHT22;49035;48.812;11.762;2022-08-19T10:33:51;22.50;99.90
22161;DHT22;49035;48.812;11.762;2022-08-19T10:36:26;22.90;99.90
22161;DHT22;49035;48.812;11.762;2022-08-19T10:38:53;23.20;99.90
22161;DHT22;49035;48.812;11.762;2022-08-19T10:41:23;23.40;99.90
22161;DHT22;49035;48.812;11.762;2022-08-19T10:44:01;23.50;99.90
22161;DHT22;49035;48.812;11.762;2022-08-19T10:46:28;23.50;99.90
22161;DHT22;49035;48.812;11.762;2022-08-19T10:48:56;23.60;99.90
22161;DHT22;49035;48.812;11.762;2022-08-19T10:51:22;23.70;99.90
22161;DHT22;49035;48.812;11.762;2022-08-19T10:54:06;23.70;99.90
22161;DHT22;49035;48.812;11.762;2022-08-19T10:56:32;23.60;99.90
22161;DHT22;49035;48.812;11.762;2022-08-19T10:59:29;23.20;99.90
22161;DHT22;49035;48.812;11.762;2022-08-19T11:01:59;22.90;99.90
22161;DHT22;49035;48.812;11.762;2022-08-19T11:04:25;22.60;99.90
22161;DHT22;49035;48.812;11.762;2022-08-19T11:06:51;22.40;99.90
22161;DHT22;49035;48.812;11.762;2022-08-19T11:09:22;22.20;99.90
22161;DHT22;49035;48.812;11.762;2022-08-19T11:11:51;22.10;99.90
22161;DHT22;49035;48.812;11.762;2022-08-19T11:14:20;22.10;99.90
22161;DHT22;49035;48.812;11.762;2022-08-19T11:16:47;21.90;99.90
22161;DHT22;49035;48.812;11.762;2022-08-19T11:19:13;21.80;99.90
22161;DHT22;49035;48.812;11.762;2022-08-19T11:21:43;21.50;99.90
22161;DHT22;49035;48.812;11.762;2022-08-19T11:24:13;21.30;99.90
22161;DHT22;49035;48.812;11.762;2022-08-19T11:26:41;21.20;99.90
22161;DHT22;49035;48.812;11.762;2022-08-19T11:29:08;21.00;99.90
22161;DHT22;49035;48.812;11.762;2022-08-19T11:31:37;20.80;99.90
22161;DHT22;49035;48.812;11.762;2022-08-19T11:34:07;20.70;99.90
22161;DHT22;49035;48.812;11.762;2022-08-19T11:36:34;20.60;99.90
22161;DHT22;49035;48.812;11.762;2022-08-19T11:39:01;20.50;99.90
22161;DHT22;49035;48.812;11.762;2022-08-19T11:41:27;20.40;99.90
22161;DHT22;49035;48.812;11.762;2022-08-19T11:43:53;20.40;99.90
22161;DHT22;49035;48.812;11.762;2022-08-19T11:46:22;20.40;99.90
22161;DHT22;49035;48.812;11.762;2022-08-19T11:48:48;20.30;99.90
22161;DHT22;49035;48.812;11.762;2022-08-19T11:51:18;20.40;99.90
22161;DHT22;49035;48.812;11.762;2022-08-19T11:53:45;20.60;99.90
22161;DHT22;49035;48.812;11.762;2022-08-19T11:56:11;20.80;99.90
22161;DHT22;49035;48.812;11.762;2022-08-19T11:58:38;20.80;99.90
22161;DHT22;49035;48.812;11.762;2022-08-19T12:01:08;20.80;99.90
22161;DHT22;49035;48.812;11.762;2022-08-19T12:03:35;20.80;99.90
22161;DHT22;49035;48.812;11.762;2022-08-19T12:06:13;20.90;99.90
22161;DHT22;49035;48.812;11.762;2022-08-19T12:08:40;20.90;99.90
22161;DHT22;49035;48.812;11.762;2022-08-19T12:11:06;21.10;99.90
22161;DHT22;49035;48.812;11.762;2022-08-19T12:13:35;21.30;99.90
22161;DHT22;49035;48.812;11.762;2022-08-19T12:16:10;21.40;99.90
22161;DHT22;49035;48.812;11.762;2022-08-19T12:18:40;21.30;99.90
22161;DHT22;49035;48.812;11.762;2022-08-19T12:21:09;21.10;99.90
22161;DHT22;49035;48.812;11.762;2022-08-19T12:23:36;20.80;99.90
22161;DHT22;49035;48.812;11.762;2022-08-19T12:26:02;20.40;99.90
22161;DHT22;49035;48.812;11.762;2022-08-19T12:28:28;20.40;99.90
22161;DHT22;49035;48.812;11.762;2022-08-19T12:30:55;20.60;99.90
22161;DHT22;49035;48.812;11.762;2022-08-19T12:33:21;20.80;99.90
22161;DHT22;49035;48.812;11.762;2022-08-19T12:35:50;20.90;99.90
22161;DHT22;49035;48.812;11.762;2022-08-19T12:38:16;20.90;99.90
22161;DHT22;49035;48.812;11.762;2022-08-19T12:40:47;20.80;99.90
22161;DHT22;49035;48.812;11.762;2022-08-19T12:43:13;20.70;99.90
22161;DHT22;49035;48.812;11.762;2022-08-19T12:45:41;20.70;99.90
22161;DHT22;49035;48.812;11.762;2022-08-19T12:48:08;20.60;99.90
22161;DHT22;49035;48.812;11.762;2022-08-19T12:50:34;20.90;99.90
22161;DHT22;49035;48.812;11.762;2022-08-19T12:52:59;21.00;99.90
22161;DHT22;49035;48.812;11.762;2022-08-19T12:55:25;21.10;99.90
22161;DHT22;49035;48.812;11.762;2022-08-19T12:57:53;21.10;99.90
22161;DHT22;49035;48.812;11.762;2022-08-19T13:00:21;21.30;99.90
22161;DHT22;49035;48.812;11.762;2022-08-19T13:02:49;21.30;99.90
22161;DHT22;49035;48.812;11.762;2022-08-19T13:05:22;21.30;99.90
22161;DHT22;49035;48.812;11.762;2022-08-19T13:07:49;21.20;99.90
22161;DHT22;49035;48.812;11.762;2022-08-19T13:10:17;21.30;99.90
22161;DHT22;49035;48.812;11.762;2022-08-19T13:12:45;21.10;99.90
22161;DHT22;49035;48.812;11.762;2022-08-19T13:15:12;20.50;99.90
22161;DHT22;49035;48.812;11.762;2022-08-19T13:17:39;20.10;99.90
22161;DHT22;49035;48.812;11.762;2022-08-19T13:20:09;19.80;99.90
22161;DHT22;49035;48.812;11.762;2022-08-19T13:22:35;19.80;99.90
22161;DHT22;49035;48.812;11.762;2022-08-19T13:25:05;19.80;99.90
22161;DHT22;49035;48.812;11.762;2022-08-19T13:27:31;19.80;99.90
22161;DHT22;49035;48.812;11.762;2022-08-19T13:29:57;19.70;99.90
22161;DHT22;49035;48.812;11.762;2022-08-19T13:32:41;19.80;99.90
22161;DHT22;49035;48.812;11.762;2022-08-19T13:35:25;19.90;99.90
22161;DHT22;49035;48.812;11.762;2022-08-19T13:37:51;19.90;99.90
22161;DHT22;49035;48.812;11.762;2022-08-19T13:40:19;20.00;99.90
22161;DHT22;49035;48.812;11.762;2022-08-19T13:42:49;19.90;99.90
22161;DHT22;49035;48.812;11.762;2022-08-19T13:45:17;19.90;99.90
22161;DHT22;49035;48.812;11.762;2022-08-19T13:47:46;19.90;99.90
22161;DHT22;49035;48.812;11.762;2022-08-19T13:50:14;20.00;99.90
22161;DHT22;49035;48.812;11.762;2022-08-19T13:52:40;20.00;99.90
22161;DHT22;49035;48.812;11.762;2022-08-19T13:55:07;20.10;99.90
22161;DHT22;49035;48.812;11.762;2022-08-19T13:57:34;20.00;99.90
22161;DHT22;49035;48.812;11.762;2022-08-19T13:59:59;19.90;99.90
22161;DHT22;49035;48.812;11.762;2022-08-19T14:02:25;19.80;99.90
22161;DHT22;49035;48.812;11.762;2022-08-19T14:04:52;19.80;99.90
22161;DHT22;49035;48.812;11.762;2022-08-19T14:07:17;19.80;99.90
22161;DHT22;49035;48.812;11.762;2022-08-19T14:09:43;19.70;99.90
22161;DHT22;49035;48.812;11.762;2022-08-19T14:12:09;19.60;99.90
22161;DHT22;49035;48.812;11.762;2022-08-19T14:14:38;19.60;99.90
22161;DHT22;49035;48.812;11.762;2022-08-19T14:17:08;19.50;99.90
22161;DHT22;49035;48.812;11.762;2022-08-19T14:19:34;19.50;99.90
22161;DHT22;49035;48.812;11.762;2022-08-19T14:22:00;19.50;99.90
22161;DHT22;49035;48.812;11.762;2022-08-19T14:24:26;19.40;99.90
22161;DHT22;49035;48.812;11.762;2022-08-19T14:26:52;19.40;99.90
22161;DHT22;49035;48.812;11.762;2022-08-19T14:29:18;19.30;99.90
22161;DHT22;49035;48.812;11.762;2022-08-19T14:31:43;19.20;99.90
22161;DHT22;49035;48.812;11.762;2022-08-19T14:34:10;19.20;99.90
22161;DHT22;49035;48.812;11.762;2022-08-19T14:36:36;19.10;99.90
22161;DHT22;49035;48.812;11.762;2022-08-19T14:39:03;19.00;99.90
22161;DHT22;49035;48.812;11.762;2022-08-19T14:41:28;19.10;99.90
22161;DHT22;49035;48.812;11.762;2022-08-19T14:43:56;19.00;99.90
22161;DHT22;49035;48.812;11.762;2022-08-19T14:46:25;19.00;99.90
22161;DHT22;49035;48.812;11.762;2022-08-19T14:48:52;19.00;99.90
22161;DHT22;49035;48.812;11.762;2022-08-19T14:51:19;19.00;99.90
22161;DHT22;49035;48.812;11.762;2022-08-19T14:53:45;19.10;99.90
22161;DHT22;49035;48.812;11.762;2022-08-19T14:56:13;19.10;99.90
22161;DHT22;49035;48.812;11.762;2022-08-19T14:58:40;19.10;99.90
22161;DHT22;49035;48.812;11.762;2022-08-19T15:01:07;19.10;99.90
22161;DHT22;49035;48.812;11.762;2022-08-19T15:03:33;19.10;99.90
22161;DHT22;49035;48.812;11.762;2022-08-19T15:06:00;19.20;99.90
22161;DHT22;49035;48.812;11.762;2022-08-19T15:08:28;19.20;99.90
22161;DHT22;49035;48.812;11.762;2022-08-19T15:10:54;19.20;99.90
22161;DHT22;49035;48.812;11.762;2022-08-19T15:13:20;19.30;99.90
22161;DHT22;49035;48.812;11.762;2022-08-19T15:15:47;19.30;99.90
22161;DHT22;49035;48.812;11.762;2022-08-19T15:18:13;19.40;99.90
22161;DHT22;49035;48.812;11.762;2022-08-19T15:20:38;19.40;99.90
22161;DHT22;49035;48.812;11.762;2022-08-19T15:23:05;19.40;99.90
22161;DHT22;49035;48.812;11.762;2022-08-19T15:25:31;19.60;99.90
22161;DHT22;49035;48.812;11.762;2022-08-19T15:27:58;19.70;99.90
22161;DHT22;49035;48.812;11.762;2022-08-19T15:30:27;19.80;99.90
22161;DHT22;49035;48.812;11.762;2022-08-19T15:32:54;19.90;99.90
22161;DHT22;49035;48.812;11.762;2022-08-19T15:35:21;20.00;99.90
22161;DHT22;49035;48.812;11.762;2022-08-19T15:37:51;20.10;99.90
22161;DHT22;49035;48.812;11.762;2022-08-19T15:40:18;20.10;99.90
22161;DHT22;49035;48.812;11.762;2022-08-19T15:42:43;20.10;99.90
22161;DHT22;49035;48.812;11.762;2022-08-19T15:45:11;20.20;99.90
22161;DHT22;49035;48.812;11.762;2022-08-19T15:47:38;20.20;99.90
22161;DHT22;49035;48.812;11.762;2022-08-19T15:50:16;20.20;99.90
22161;DHT22;49035;48.812;11.762;2022-08-19T15:52:51;20.20;99.90
22161;DHT22;49035;48.812;11.762;2022-08-19T15:55:20;20.20;99.90
22161;DHT22;49035;48.812;11.762;2022-08-19T15:57:46;20.20;99.90
22161;DHT22;49035;48.812;11.762;2022-08-19T16:00:30;20.10;99.90
22161;DHT22;49035;48.812;11.762;2022-08-19T16:03:14;20.00;99.90